Time;durP1;ratioP1;P1;durP2;ratioP2;P2;SDS_P1;SDS_P2;PMS_P1;PMS_P2;Temp;Humidity;BMP_temperature;BMP_pressure;BME280_temperature;BME280_humidity;BME280_pressure;Samples;Min_cycle;Max_cycle;Signal;HPM_P1;HPM_P2
2022/08/22 00:01:40;;;;;;;10.13;5.68;;;;;;;;;;4936925;29;20039;-77
2022/08/22 00:04:15;;;;;;;13.50;6.72;;;;;;;;;;4954661;28;20027;-76
2022/08/22 00:06:57;;;;;;;8.57;5.82;;;;;;;;;;4954366;28;20434;-78
2022/08/22 00:10:05;;;;;;;8.85;5.78;;;;;;;;;;4951903;29;20114;-77
2022/08/22 00:12:43;;;;;;;8.40;5.97;;;;;;;;;;4953803;29;20039;-77
2022/08/22 00:15:29;;;;;;;9.98;6.95;;;;;;;;;;4954729;29;20035;-78
2022/08/22 00:18:19;;;;;;;13.63;7.20;;;;;;;;;;4954538;29;20093;-74
2022/08/22 00:20:52;;;;;;;10.25;6.43;;;;;;;;;;4954588;29;20046;-75
2022/08/22 00:23:33;;;;;;;9.02;6.18;;;;;;;;;;4954404;29;20031;-77
2022/08/22 00:26:32;;;;;;;9.15;5.55;;;;;;;;;;4954445;29;20094;-76
2022/08/22 00:29:09;;;;;;;8.75;6.55;;;;;;;;;;4931585;29;20046;-76
2022/08/22 00:31:44;;;;;;;7.63;5.45;;;;;;;;;;4954495;28;20035;-77
2022/08/22 00:34:21;;;;;;;8.05;6.13;;;;;;;;;;4954283;29;20058;-78
2022/08/22 00:37:09;;;;;;;6.15;5.38;;;;;;;;;;4936903;29;20039;-79
2022/08/22 00:40:01;;;;;;;8.98;5.72;;;;;;;;;;4954063;29;20396;-77
2022/08/22 00:42:51;;;;;;;10.77;6.00;;;;;;;;;;4953948;29;20078;-79
2022/08/22 00:45:19;;;;;;;8.27;5.82;;;;;;;;;;4953867;29;20035;-79
2022/08/22 00:47:48;;;;;;;6.13;5.10;;;;;;;;;;4954321;29;20034;-79
2022/08/22 00:50:43;;;;;;;6.90;5.60;;;;;;;;;;4954372;29;20114;-79
2022/08/22 00:53:12;;;;;;;8.82;5.78;;;;;;;;;;4953785;29;20039;-78
2022/08/22 00:56:04;;;;;;;8.82;5.65;;;;;;;;;;4953780;29;20035;-75
2022/08/22 00:59:00;;;;;;;10.18;5.90;;;;;;;;;;4953732;29;20509;-78
2022/08/22 01:02:10;;;;;;;6.03;4.82;;;;;;;;;;4953879;29;20039;-77
2022/08/22 01:04:40;;;;;;;8.13;5.40;;;;;;;;;;4944021;29;20051;-78
2022/08/22 01:07:09;;;;;;;8.00;5.63;;;;;;;;;;4954050;29;20118;-76
2022/08/22 01:10:09;;;;;;;6.97;5.28;;;;;;;;;;4936766;29;20035;-77
2022/08/22 01:12:58;;;;;;;6.82;5.45;;;;;;;;;;4953443;29;20110;-76
2022/08/22 01:15:28;;;;;;;8.88;5.75;;;;;;;;;;4926227;29;20039;-76
2022/08/22 01:18:20;;;;;;;6.35;4.70;;;;;;;;;;4954076;29;20031;-78
2022/08/22 01:20:49;;;;;;;6.18;5.03;;;;;;;;;;4954001;29;20038;-77
2022/08/22 01:23:33;;;;;;;8.00;5.18;;;;;;;;;;4936736;29;20497;-79
2022/08/22 01:26:36;;;;;;;9.02;4.97;;;;;;;;;;4936650;29;20387;-79
2022/08/22 01:29:38;;;;;;;7.17;5.20;;;;;;;;;;4954050;29;20039;-79
2022/08/22 01:32:07;;;;;;;6.90;4.57;;;;;;;;;;4953812;29;20285;-79
2022/08/22 01:35:10;;;;;;;9.57;5.32;;;;;;;;;;4936608;29;20114;-80
2022/08/22 01:38:00;;;;;;;8.07;5.75;;;;;;;;;;4953890;29;20047;-79
2022/08/22 01:40:45;;;;;;;10.05;5.32;;;;;;;;;;4953948;29;20043;-77
2022/08/22 01:43:16;;;;;;;6.55;5.55;;;;;;;;;;4953696;28;20035;-78
2022/08/22 01:46:23;;;;;;;7.03;4.47;;;;;;;;;;4939695;29;20035;-78
2022/08/22 01:49:03;;;;;;;7.57;5.00;;;;;;;;;;4941307;29;20043;-79
2022/08/22 01:51:39;;;;;;;11.90;5.68;;;;;;;;;;4957412;29;20093;-79
2022/08/22 01:54:22;;;;;;;8.63;5.32;;;;;;;;;;4957067;29;20039;-79
2022/08/22 01:56:48;;;;;;;7.63;5.00;;;;;;;;;;4957551;29;20031;-78
2022/08/22 01:59:29;;;;;;;7.93;5.55;;;;;;;;;;4957104;29;20545;-78
2022/08/22 02:02:16;;;;;;;9.27;5.78;;;;;;;;;;4957062;29;20042;-77
2022/08/22 02:04:54;;;;;;;7.70;6.13;;;;;;;;;;4956874;29;20496;-76
2022/08/22 02:07:37;;;;;;;8.00;6.57;;;;;;;;;;4957007;29;20035;-76
2022/08/22 02:10:14;;;;;;;10.52;7.10;;;;;;;;;;4957132;29;20410;-76
2022/08/22 02:12:40;;;;;;;10.80;8.15;;;;;;;;;;4956932;29;20032;-77
2022/08/22 02:15:30;;;;;;;10.10;7.13;;;;;;;;;;4956913;29;20031;-77
2022/08/22 02:18:05;;;;;;;11.68;6.90;;;;;;;;;;4956677;29;20054;-75
2022/08/22 02:20:58;;;;;;;8.32;6.68;;;;;;;;;;4956519;29;20653;-77
2022/08/22 02:23:54;;;;;;;12.90;6.80;;;;;;;;;;4956664;29;20383;-76
2022/08/22 02:27:08;;;;;;;7.90;6.85;;;;;;;;;;4956768;29;20027;-77
2022/08/22 02:29:51;;;;;;;9.50;6.43;;;;;;;;;;4888428;29;20057;-76
2022/08/22 02:32:21;;;;;;;8.10;5.50;;;;;;;;;;4956337;29;20134;-77
2022/08/22 02:35:05;;;;;;;12.40;6.45;;;;;;;;;;4956374;29;20297;-76
2022/08/22 02:37:34;;;;;;;8.48;5.80;;;;;;;;;;4956576;29;20038;-76
2022/08/22 02:40:20;;;;;;;9.18;6.50;;;;;;;;;;4956189;29;20023;-76
2022/08/22 02:43:01;;;;;;;9.93;6.68;;;;;;;;;;4946181;29;20043;-76
2022/08/22 02:45:42;;;;;;;7.57;6.40;;;;;;;;;;4938798;29;20047;-79
2022/08/22 02:48:14;;;;;;;10.65;6.40;;;;;;;;;;4939025;29;20046;-76
2022/08/22 02:50:50;;;;;;;10.25;6.60;;;;;;;;;;4956350;29;20043;-77
2022/08/22 02:53:26;;;;;;;8.00;6.43;;;;;;;;;;4956089;29;20118;-77
2022/08/22 02:56:05;;;;;;;9.73;6.47;;;;;;;;;;4937824;29;20042;-76
2022/08/22 02:58:52;;;;;;;8.35;5.88;;;;;;;;;;4955770;29;20553;-79
2022/08/22 03:01:28;;;;;;;10.52;6.28;;;;;;;;;;4956067;29;20110;-76
2022/08/22 03:04:20;;;;;;;11.10;6.03;;;;;;;;;;4955928;29;20501;-78
2022/08/22 03:07:19;;;;;;;10.55;6.35;;;;;;;;;;4955798;29;20031;-79
2022/08/22 03:10:07;;;;;;;8.77;6.18;;;;;;;;;;4955343;29;20035;-79
2022/08/22 03:12:56;;;;;;;8.32;6.13;;;;;;;;;;4955584;29;20034;-77
2022/08/22 03:15:43;;;;;;;11.77;6.43;;;;;;;;;;4955952;29;20047;-78
2022/08/22 03:18:26;;;;;;;11.80;7.35;;;;;;;;;;4955034;29;20035;-79
2022/08/22 03:21:14;;;;;;;10.00;6.88;;;;;;;;;;4955475;29;20150;-78
2022/08/22 03:24:08;;;;;;;14.25;8.10;;;;;;;;;;4938251;29;20031;-78
2022/08/22 03:27:04;;;;;;;11.15;7.60;;;;;;;;;;4954963;29;20040;-78
2022/08/22 03:29:43;;;;;;;16.88;8.20;;;;;;;;;;4952066;29;20023;-78
2022/08/22 03:32:17;;;;;;;11.10;7.45;;;;;;;;;;4955205;29;20082;-78
2022/08/22 03:35:08;;;;;;;11.10;7.90;;;;;;;;;;4955435;29;20378;-77
2022/08/22 03:37:34;;;;;;;10.98;8.35;;;;;;;;;;4955149;29;20035;-78
2022/08/22 03:40:20;;;;;;;12.90;8.07;;;;;;;;;;4937542;29;20089;-78
2022/08/22 03:43:10;;;;;;;14.73;8.90;;;;;;;;;;4955164;29;20489;-77
2022/08/22 03:45:54;;;;;;;13.43;8.18;;;;;;;;;;4955100;29;20538;-78
2022/08/22 03:48:49;;;;;;;15.60;8.95;;;;;;;;;;4955202;29;20390;-77
2022/08/22 03:51:45;;;;;;;17.65;8.40;;;;;;;;;;4954854;29;20533;-78
2022/08/22 03:54:29;;;;;;;12.48;7.70;;;;;;;;;;4954466;29;20058;-78
2022/08/22 03:57:19;;;;;;;14.23;7.25;;;;;;;;;;4937454;29;20043;-77
2022/08/22 04:00:05;;;;;;;20.40;8.02;;;;;;;;;;4954755;29;20133;-78
2022/08/22 04:02:59;;;;;;;12.45;7.07;;;;;;;;;;4953878;29;20047;-77
2022/08/22 04:06:02;;;;;;;10.85;7.05;;;;;;;;;;4954252;29;20031;-78
2022/08/22 04:08:47;;;;;;;16.83;7.95;;;;;;;;;;4954195;28;20074;-77
2022/08/22 04:11:41;;;;;;;14.73;8.57;;;;;;;;;;4934759;29;20035;-77
2022/08/22 04:14:44;;;;;;;13.98;8.63;;;;;;;;;;4953631;29;20094;-76
2022/08/22 04:17:25;;;;;;;17.52;8.43;;;;;;;;;;4953744;29;20035;-76
2022/08/22 04:20:00;;;;;;;18.27;9.05;;;;;;;;;;4954534;29;20394;-77
2022/08/22 04:22:47;;;;;;;17.45;8.48;;;;;;;;;;4954534;29;20030;-77
2022/08/22 04:25:22;;;;;;;13.68;8.77;;;;;;;;;;4937095;29;20109;-77
2022/08/22 04:28:14;;;;;;;11.65;8.45;;;;;;;;;;4954533;29;20400;-79
2022/08/22 04:30:47;;;;;;;13.50;6.95;;;;;;;;;;4954473;29;20028;-76
2022/08/22 04:33:33;;;;;;;18.13;9.48;;;;;;;;;;4954189;29;20031;-77
2022/08/22 04:36:21;;;;;;;15.48;8.88;;;;;;;;;;4937042;29;20462;-77
2022/08/22 04:38:58;;;;;;;16.02;8.05;;;;;;;;;;4953740;29;20035;-77
2022/08/22 04:41:34;;;;;;;15.10;8.25;;;;;;;;;;4954074;29;20039;-79
2022/08/22 04:44:09;;;;;;;12.52;7.25;;;;;;;;;;4954050;29;20035;-79
2022/08/22 04:46:50;;;;;;;13.13;7.40;;;;;;;;;;4952813;29;20044;-77
2022/08/22 04:49:28;;;;;;;11.90;7.00;;;;;;;;;;4953842;29;20186;-78
2022/08/22 04:52:17;;;;;;;8.68;6.20;;;;;;;;;;4954760;29;20033;-78
2022/08/22 04:55:18;;;;;;;9.80;5.00;;;;;;;;;;4953943;29;20050;-79
2022/08/22 04:58:17;;;;;;;11.25;5.50;;;;;;;;;;4954406;29;20506;-77
2022/08/22 05:01:17;;;;;;;15.13;6.20;;;;;;;;;;4902997;29;20417;-78
2022/08/22 05:04:00;;;;;;;11.77;6.55;;;;;;;;;;4955097;28;20037;-78
2022/08/22 05:06:31;;;;;;;13.68;7.25;;;;;;;;;;4955146;29;20054;-77
2022/08/22 05:09:06;;;;;;;14.57;6.95;;;;;;;;;;4954460;29;20106;-77
2022/08/22 05:11:33;;;;;;;9.43;6.07;;;;;;;;;;4954553;29;20062;-77
2022/08/22 05:14:05;;;;;;;9.15;5.60;;;;;;;;;;4937101;29;20116;-77
2022/08/22 05:16:39;;;;;;;7.90;5.83;;;;;;;;;;4954611;29;20035;-78
2022/08/22 05:19:11;;;;;;;10.63;6.07;;;;;;;;;;4955257;28;20494;-77
2022/08/22 05:21:40;;;;;;;10.73;6.32;;;;;;;;;;4958363;29;20043;-77
2022/08/22 05:24:10;;;;;;;10.05;6.00;;;;;;;;;;4958454;28;20027;-77
2022/08/22 05:26:41;;;;;;;11.48;6.30;;;;;;;;;;4957989;29;20035;-78
2022/08/22 05:29:09;;;;;;;11.70;6.78;;;;;;;;;;4957957;29;20034;-77
2022/08/22 05:31:48;;;;;;;8.65;6.10;;;;;;;;;;4958076;29;20035;-76
2022/08/22 05:34:19;;;;;;;9.40;6.43;;;;;;;;;;4957136;28;20541;-76
2022/08/22 05:36:55;;;;;;;10.77;6.47;;;;;;;;;;4940176;29;20166;-77
2022/08/22 05:39:24;;;;;;;13.13;7.13;;;;;;;;;;4958052;29;20047;-76
2022/08/22 05:41:53;;;;;;;11.38;6.35;;;;;;;;;;4957893;29;20034;-78
2022/08/22 05:44:39;;;;;;;15.32;6.75;;;;;;;;;;4957820;28;20106;-77
2022/08/22 05:47:20;;;;;;;9.10;6.28;;;;;;;;;;4957918;29;20099;-76
2022/08/22 05:50:17;;;;;;;11.93;6.97;;;;;;;;;;4957816;29;20037;-76
2022/08/22 05:53:27;;;;;;;10.82;7.20;;;;;;;;;;4957776;28;20043;-78
2022/08/22 05:56:22;;;;;;;11.25;7.22;;;;;;;;;;4921338;29;20542;-77
2022/08/22 05:59:01;;;;;;;13.38;7.05;;;;;;;;;;4952730;29;20121;-77
2022/08/22 06:01:53;;;;;;;9.43;7.10;;;;;;;;;;4939959;29;20067;-76
2022/08/22 06:04:40;;;;;;;14.95;7.80;;;;;;;;;;4957079;28;20122;-78
2022/08/22 06:07:16;;;;;;;21.67;7.63;;;;;;;;;;4957394;29;20035;-78
2022/08/22 06:09:45;;;;;;;11.02;6.32;;;;;;;;;;4957206;29;20075;-77
2022/08/22 06:12:17;;;;;;;10.23;6.32;;;;;;;;;;4957209;29;20102;-77
2022/08/22 06:14:53;;;;;;;10.68;5.97;;;;;;;;;;4956877;28;20035;-77
2022/08/22 06:17:24;;;;;;;10.65;6.57;;;;;;;;;;4957062;29;20031;-78
2022/08/22 06:19:52;;;;;;;11.40;5.97;;;;;;;;;;4939813;29;20410;-78
2022/08/22 06:22:33;;;;;;;11.15;5.97;;;;;;;;;;4956161;29;20098;-79
2022/08/22 06:25:30;;;;;;;7.80;4.90;;;;;;;;;;4939010;29;20050;-78
2022/08/22 06:27:57;;;;;;;9.00;5.13;;;;;;;;;;4949021;29;20051;-77
2022/08/22 06:30:26;;;;;;;12.95;6.03;;;;;;;;;;4956410;28;20412;-79
2022/08/22 06:32:56;;;;;;;9.52;5.13;;;;;;;;;;4957005;29;20054;-78
2022/08/22 06:38:36;;;;;;;8.52;5.38;;;;;;;;;;4957099;29;20033;-78
2022/08/22 06:41:05;;;;;;;9.40;5.72;;;;;;;;;;4956190;29;20406;-76
2022/08/22 06:43:38;;;;;;;11.45;6.15;;;;;;;;;;4956339;29;20034;-78
2022/08/22 06:46:05;;;;;;;8.68;5.95;;;;;;;;;;4956471;29;20081;-77
2022/08/22 06:48:33;;;;;;;8.45;5.82;;;;;;;;;;4955855;29;20034;-80
2022/08/22 06:51:00;;;;;;;9.15;5.97;;;;;;;;;;4956363;29;20498;-79
2022/08/22 06:53:35;;;;;;;8.95;5.57;;;;;;;;;;4956247;29;20065;-79
2022/08/22 06:56:04;;;;;;;10.35;5.82;;;;;;;;;;4953456;29;20066;-78
2022/08/22 06:58:36;;;;;;;9.60;5.38;;;;;;;;;;4955732;29;20399;-80
2022/08/22 07:01:07;;;;;;;11.13;5.35;;;;;;;;;;4955050;29;20130;-77
2022/08/22 07:03:37;;;;;;;9.93;5.50;;;;;;;;;;4955707;29;20478;-80
2022/08/22 07:06:04;;;;;;;10.40;5.72;;;;;;;;;;4955908;29;20031;-77
2022/08/22 07:08:33;;;;;;;10.27;5.82;;;;;;;;;;4938800;29;20023;-79
2022/08/22 07:11:26;;;;;;;9.65;5.80;;;;;;;;;;4955600;29;20121;-78
2022/08/22 07:13:55;;;;;;;;;;;;;;;;;;4955988;28;20043;-80
2022/08/22 07:16:43;;;;;;;11.50;6.07;;;;;;;;;;4955076;29;20013;-80
2022/08/22 07:19:25;;;;;;;8.98;6.40;;;;;;;;;;4955537;29;20658;-78
2022/08/22 07:21:51;;;;;;;8.38;5.97;;;;;;;;;;4955917;29;20031;-78
2022/08/22 07:24:23;;;;;;;14.90;6.90;;;;;;;;;;4932081;29;20032;-82
2022/08/22 07:27:04;;;;;;;17.73;11.63;;;;;;;;;;4948823;29;20055;-84
2022/08/22 07:29:46;;;;;;;10.68;7.03;;;;;;;;;;4940393;29;20035;-78
2022/08/22 07:32:23;;;;;;;12.50;6.38;;;;;;;;;;4936485;29;20094;-79
2022/08/22 07:34:52;;;;;;;9.57;6.05;;;;;;;;;;4935763;29;20346;-80
2022/08/22 07:37:50;;;;;;;8.73;6.20;;;;;;;;;;4953661;29;20059;-81
2022/08/22 07:40:26;;;;;;;9.98;6.00;;;;;;;;;;4927098;29;20082;-79
2022/08/22 07:43:37;;;;;;;10.55;6.22;;;;;;;;;;4954999;28;20050;-79
2022/08/22 07:46:14;;;;;;;11.82;5.68;;;;;;;;;;4942797;29;20084;-81
2022/08/22 07:48:57;;;;;;;9.73;6.25;;;;;;;;;;4954882;29;20036;-79
2022/08/22 07:51:33;;;;;;;12.60;6.20;;;;;;;;;;4948706;29;20032;-79
2022/08/22 07:54:07;;;;;;;10.15;6.18;;;;;;;;;;4943308;28;20460;-79
2022/08/22 07:56:42;;;;;;;8.55;5.50;;;;;;;;;;4950066;28;20395;-78
2022/08/22 07:59:13;;;;;;;11.25;6.22;;;;;;;;;;4958143;28;20411;-78
2022/08/22 08:01:55;;;;;;;11.98;8.90;;;;;;;;;;4963745;28;20034;-77
2022/08/22 08:04:28;;;;;;;10.00;6.70;;;;;;;;;;4968800;28;20447;-78
2022/08/22 08:06:56;;;;;;;7.13;5.45;;;;;;;;;;4954920;28;20067;-78
2022/08/22 08:09:23;;;;;;;10.43;6.32;;;;;;;;;;4954743;28;20038;-77
2022/08/22 08:11:52;;;;;;;13.90;6.35;;;;;;;;;;4954423;29;20043;-78
2022/08/22 08:14:20;;;;;;;12.80;6.47;;;;;;;;;;4954281;29;20038;-78
2022/08/22 08:16:54;;;;;;;10.05;6.10;;;;;;;;;;4954102;29;20031;-78
2022/08/22 08:19:21;;;;;;;9.60;5.65;;;;;;;;;;4953910;29;20098;-78
2022/08/22 08:21:53;;;;;;;12.90;6.75;;;;;;;;;;4954809;28;20065;-78
2022/08/22 08:24:30;;;;;;;10.75;6.75;;;;;;;;;;4953889;28;20138;-78
2022/08/22 08:29:54;;;;;;;11.95;6.40;;;;;;;;;;4953640;29;20035;-79
2022/08/22 08:32:29;;;;;;;11.68;6.38;;;;;;;;;;4954278;28;20081;-79
2022/08/22 08:34:55;;;;;;;7.70;6.20;;;;;;;;;;4954293;28;20035;-78
2022/08/22 08:37:44;;;;;;;8.57;6.30;;;;;;;;;;4954023;28;20023;-80
2022/08/22 08:40:27;;;;;;;12.73;6.40;;;;;;;;;;4954418;28;20035;-79
2022/08/22 08:43:28;;;;;;;8.20;6.18;;;;;;;;;;4954109;28;20079;-78
2022/08/22 08:46:13;;;;;;;10.35;6.43;;;;;;;;;;4954025;28;20110;-78
2022/08/22 08:48:38;;;;;;;9.90;6.70;;;;;;;;;;4936624;29;20407;-78
2022/08/22 08:51:42;;;;;;;9.75;6.18;;;;;;;;;;4954174;29;20062;-75
2022/08/22 08:54:10;;;;;;;;;;;;;;;;;;4953111;28;20402;-78
2022/08/22 08:57:09;;;;;;;9.32;7.05;;;;;;;;;;4946853;29;19919;-77
2022/08/22 09:00:03;;;;;;;10.88;6.70;;;;;;;;;;4954364;28;20039;-80
2022/08/22 09:02:48;;;;;;;12.55;6.38;;;;;;;;;;4952653;28;20090;-80
2022/08/22 09:05:51;;;;;;;13.07;6.60;;;;;;;;;;4936286;29;20483;-82
2022/08/22 09:09:00;;;;;;;9.73;6.20;;;;;;;;;;4953792;29;20031;-81
2022/08/22 09:12:00;;;;;;;13.07;6.47;;;;;;;;;;4934520;29;20417;-78
2022/08/22 09:14:43;;;;;;;10.00;6.30;;;;;;;;;;4953691;29;20035;-80
2022/08/22 09:17:12;;;;;;;;;;;;;;;;;;4953522;29;20036;-80
2022/08/22 09:20:07;;;;;;;10.73;6.47;;;;;;;;;;4953355;29;19914;-80
2022/08/22 09:23:07;;;;;;;11.02;5.97;;;;;;;;;;4953337;29;20031;-79
2022/08/22 09:25:40;;;;;;;10.75;6.82;;;;;;;;;;4934594;29;20047;-79
2022/08/22 09:28:18;;;;;;;;;;;;;;;;;;4967889;28;20479;-81
2022/08/22 09:30:47;;;;;;;8.02;6.55;;;;;;;;;;4953891;29;19984;-79
2022/08/22 09:33:21;;;;;;;9.95;6.00;;;;;;;;;;4952923;28;20115;-79
2022/08/22 09:36:02;;;;;;;10.25;6.65;;;;;;;;;;4952596;28;20398;-78
2022/08/22 09:38:37;;;;;;;10.52;6.65;;;;;;;;;;4953316;29;20506;-79
2022/08/22 09:41:34;;;;;;;10.02;6.15;;;;;;;;;;4952583;29;20050;-78
2022/08/22 09:44:15;;;;;;;7.25;5.72;;;;;;;;;;4952841;28;20042;-79
2022/08/22 09:46:52;;;;;;;10.18;5.82;;;;;;;;;;4953719;29;20497;-79
2022/08/22 09:49:26;;;;;;;6.90;5.47;;;;;;;;;;4953619;29;20042;-80
2022/08/22 09:52:04;;;;;;;9.82;6.25;;;;;;;;;;4936560;29;20539;-77
2022/08/22 09:54:49;;;;;;;11.43;6.22;;;;;;;;;;4953064;29;20082;-79
2022/08/22 09:57:37;;;;;;;7.95;6.25;;;;;;;;;;4952755;29;20043;-80
2022/08/22 10:00:21;;;;;;;9.50;5.80;;;;;;;;;;4936081;29;20386;-79
2022/08/22 10:03:11;;;;;;;8.00;5.90;;;;;;;;;;4953513;29;20390;-80
2022/08/22 10:05:51;;;;;;;8.68;5.95;;;;;;;;;;4955096;28;20497;-79
2022/08/22 10:08:53;;;;;;;8.63;5.88;;;;;;;;;;4956814;29;20378;-78
2022/08/22 10:11:26;;;;;;;7.40;5.70;;;;;;;;;;4956732;29;20038;-79
2022/08/22 10:14:00;;;;;;;14.18;5.50;;;;;;;;;;4955646;28;20148;-78
2022/08/22 10:16:52;;;;;;;7.28;5.47;;;;;;;;;;4924171;29;20035;-78
2022/08/22 10:19:46;;;;;;;9.52;6.00;;;;;;;;;;4956940;29;20027;-79
2022/08/22 10:22:31;;;;;;;11.73;6.05;;;;;;;;;;4956026;29;20038;-78
2022/08/22 10:25:32;;;;;;;8.15;5.65;;;;;;;;;;4956775;29;20118;-79
2022/08/22 10:28:16;;;;;;;6.65;5.80;;;;;;;;;;4956496;29;20036;-76
2022/08/22 10:31:10;;;;;;;9.07;5.28;;;;;;;;;;4956082;29;20398;-77
2022/08/22 10:33:49;;;;;;;10.32;6.07;;;;;;;;;;4938845;29;20402;-77
2022/08/22 10:36:23;;;;;;;8.68;5.53;;;;;;;;;;4938167;29;20046;-76
2022/08/22 10:38:54;;;;;;;9.70;5.70;;;;;;;;;;4956246;29;20451;-79
2022/08/22 10:41:34;;;;;;;9.85;5.60;;;;;;;;;;4956524;29;20043;-77
2022/08/22 10:44:04;;;;;;;10.30;6.00;;;;;;;;;;4955643;28;20103;-79
2022/08/22 10:46:41;;;;;;;7.78;5.65;;;;;;;;;;4956514;29;20030;-79
2022/08/22 10:49:31;;;;;;;7.35;5.43;;;;;;;;;;4938719;29;20074;-79
2022/08/22 10:52:09;;;;;;;8.45;6.30;;;;;;;;;;4955852;29;20122;-80
2022/08/22 10:54:41;;;;;;;9.70;5.95;;;;;;;;;;4956495;29;20066;-80
2022/08/22 10:57:38;;;;;;;9.00;5.40;;;;;;;;;;4922452;29;20038;-81
2022/08/22 11:00:31;;;;;;;11.23;5.30;;;;;;;;;;4955790;29;20319;-80
2022/08/22 11:03:12;;;;;;;;;;;;;;;;;;4941754;29;20070;-79
2022/08/22 11:05:42;;;;;;;7.75;5.93;;;;;;;;;;4954525;29;19925;-79
2022/08/22 11:08:36;;;;;;;7.80;5.30;;;;;;;;;;4954475;29;20524;-78
2022/08/22 11:11:15;;;;;;;7.95;5.38;;;;;;;;;;4941821;29;20149;-80
2022/08/22 11:13:53;;;;;;;7.05;5.20;;;;;;;;;;4955504;29;20046;-77
2022/08/22 11:16:21;;;;;;;8.68;5.40;;;;;;;;;;4955348;28;20130;-78
2022/08/22 11:19:08;;;;;;;9.27;5.80;;;;;;;;;;4955471;29;20027;-78
2022/08/22 11:21:49;;;;;;;7.45;5.63;;;;;;;;;;4936818;29;20062;-79
2022/08/22 11:24:35;;;;;;;10.18;5.40;;;;;;;;;;4956105;29;20407;-80
2022/08/22 11:27:25;;;;;;;12.05;5.70;;;;;;;;;;4956133;29;20035;-79
2022/08/22 11:29:57;;;;;;;8.23;5.10;;;;;;;;;;4939211;29;20039;-82
2022/08/22 11:32:34;;;;;;;8.82;5.38;;;;;;;;;;4956123;29;20035;-81
2022/08/22 11:35:46;;;;;;;8.50;5.00;;;;;;;;;;4956079;29;20453;-80
2022/08/22 11:38:37;;;;;;;7.85;5.18;;;;;;;;;;4926010;29;20051;-79
2022/08/22 11:41:10;;;;;;;6.63;4.78;;;;;;;;;;4956247;29;20048;-80
2022/08/22 11:43:44;;;;;;;8.25;4.97;;;;;;;;;;4955718;29;20043;-77
2022/08/22 11:46:30;;;;;;;11.88;4.88;;;;;;;;;;4955748;29;20027;-81
2022/08/22 11:49:30;;;;;;;9.05;4.90;;;;;;;;;;4938253;29;20033;-79
2022/08/22 11:52:05;;;;;;;9.05;5.40;;;;;;;;;;4955601;29;20058;-80
2022/08/22 11:54:56;;;;;;;8.30;5.55;;;;;;;;;;4955618;29;20040;-79
2022/08/22 11:57:36;;;;;;;8.77;5.07;;;;;;;;;;4955379;29;20039;-78
2022/08/22 12:00:19;;;;;;;15.15;5.22;;;;;;;;;;4955749;29;20441;-79
2022/08/22 12:03:24;;;;;;;10.65;4.97;;;;;;;;;;4955029;29;20113;-78
2022/08/22 12:05:53;;;;;;;8.10;4.68;;;;;;;;;;4955410;29;20094;-78
2022/08/22 12:08:25;;;;;;;8.75;5.25;;;;;;;;;;4955887;29;20054;-82
2022/08/22 12:11:05;;;;;;;7.00;4.78;;;;;;;;;;4955274;29;20035;-77
2022/08/22 12:13:37;;;;;;;10.85;4.53;;;;;;;;;;4955360;29;20395;-79
2022/08/22 12:16:22;;;;;;;7.32;4.60;;;;;;;;;;4955404;29;20028;-77
2022/08/22 12:18:54;;;;;;;8.35;4.47;;;;;;;;;;4955321;29;20036;-77
2022/08/22 12:21:41;;;;;;;9.95;4.75;;;;;;;;;;4955043;29;20062;-79
2022/08/22 12:24:28;;;;;;;6.88;4.10;;;;;;;;;;4955116;29;20043;-78
2022/08/22 12:26:54;;;;;;;10.18;4.30;;;;;;;;;;4955398;29;20041;-78
2022/08/22 12:29:37;;;;;;;7.68;4.32;;;;;;;;;;4955117;28;20105;-77
2022/08/22 12:32:32;;;;;;;5.80;4.07;;;;;;;;;;4952579;29;20035;-81
2022/08/22 12:35:13;;;;;;;6.82;4.07;;;;;;;;;;4954876;29;20039;-77
2022/08/22 12:38:23;;;;;;;4.78;3.75;;;;;;;;;;4954799;29;20487;-77
2022/08/22 12:41:45;;;;;;;7.55;4.10;;;;;;;;;;4948169;29;20126;-77
2022/08/22 12:44:26;;;;;;;9.75;4.25;;;;;;;;;;4876698;29;20037;-78
2022/08/22 12:47:06;;;;;;;7.50;4.18;;;;;;;;;;4876896;29;20047;-79
2022/08/22 12:50:13;;;;;;;5.93;4.13;;;;;;;;;;4937370;29;20055;-76
2022/08/22 12:53:17;;;;;;;8.30;4.00;;;;;;;;;;4953800;29;20042;-77
2022/08/22 12:56:03;;;;;;;7.72;4.03;;;;;;;;;;4954284;29;20042;-76
2022/08/22 12:59:07;;;;;;;7.45;4.55;;;;;;;;;;4954455;29;20397;-78
2022/08/22 13:01:38;;;;;;;7.35;4.82;;;;;;;;;;4933199;29;20564;-76
2022/08/22 13:04:11;;;;;;;6.93;4.38;;;;;;;;;;4953477;29;20674;-77
2022/08/22 13:06:44;;;;;;;6.47;4.72;;;;;;;;;;4953958;29;20386;-81
2022/08/22 13:09:17;;;;;;;6.45;5.13;;;;;;;;;;4954505;29;20502;-80
2022/08/22 13:11:46;;;;;;;7.97;5.40;;;;;;;;;;4954477;29;20035;-80
2022/08/22 13:14:19;;;;;;;6.50;5.10;;;;;;;;;;4954389;28;20027;-80
2022/08/22 13:16:49;;;;;;;6.72;5.07;;;;;;;;;;4953950;29;20028;-84
2022/08/22 13:19:22;;;;;;;8.48;4.93;;;;;;;;;;4937052;29;20046;-80
2022/08/22 13:22:03;;;;;;;10.32;5.55;;;;;;;;;;4954617;29;20038;-83
2022/08/22 13:24:40;;;;;;;9.43;5.10;;;;;;;;;;4937154;29;20367;-80
2022/08/22 13:27:15;;;;;;;6.45;5.03;;;;;;;;;;4954325;29;20057;-81
2022/08/22 13:29:50;;;;;;;8.10;5.55;;;;;;;;;;4954375;29;20028;-79
2022/08/22 13:32:24;;;;;;;9.82;6.03;;;;;;;;;;4954399;29;20035;-82
2022/08/22 13:34:53;;;;;;;8.95;5.88;;;;;;;;;;4953943;29;20050;-77
2022/08/22 13:37:35;;;;;;;8.27;5.80;;;;;;;;;;4953136;29;20031;-78
2022/08/22 13:40:07;;;;;;;8.00;5.38;;;;;;;;;;4954339;28;20027;-82
2022/08/22 13:42:42;;;;;;;9.60;5.05;;;;;;;;;;4958424;29;20457;-80
2022/08/22 13:45:20;;;;;;;7.97;5.28;;;;;;;;;;4958300;29;20393;-80
2022/08/22 13:47:50;;;;;;;7.90;4.97;;;;;;;;;;4958278;29;20327;-78
2022/08/22 13:50:21;;;;;;;10.95;4.97;;;;;;;;;;4958494;29;20035;-79
2022/08/22 13:53:20;;;;;;;9.13;5.13;;;;;;;;;;4957877;29;20035;-80
2022/08/22 13:55:49;;;;;;;9.27;4.93;;;;;;;;;;4935415;29;20102;-79
2022/08/22 13:58:40;;;;;;;9.07;5.40;;;;;;;;;;4958329;29;20538;-80
2022/08/22 14:01:06;;;;;;;7.03;5.13;;;;;;;;;;4957876;29;20038;-77
2022/08/22 14:03:52;;;;;;;6.03;5.15;;;;;;;;;;4957653;29;20047;-77
2022/08/22 14:06:21;;;;;;;6.90;5.03;;;;;;;;;;4957858;29;20031;-75
2022/08/22 14:08:49;;;;;;;9.02;5.38;;;;;;;;;;4958124;29;20082;-76
2022/08/22 14:11:41;;;;;;;5.82;4.85;;;;;;;;;;4957991;29;20049;-79
2022/08/22 14:14:08;;;;;;;10.43;5.65;;;;;;;;;;4951291;29;20211;-76
2022/08/22 14:16:43;;;;;;;7.25;4.90;;;;;;;;;;4957383;29;20038;-81
2022/08/22 14:19:21;;;;;;;7.82;5.78;;;;;;;;;;4956802;29;20162;-80
2022/08/22 14:21:54;;;;;;;8.60;5.13;;;;;;;;;;4957441;29;20042;-76
2022/08/22 14:24:29;;;;;;;9.00;5.68;;;;;;;;;;4957369;29;20094;-83
2022/08/22 14:27:10;;;;;;;8.05;5.25;;;;;;;;;;4957514;29;20046;-81
2022/08/22 14:30:00;;;;;;;10.95;5.60;;;;;;;;;;4940130;29;20039;-77
2022/08/22 14:32:25;;;;;;;8.40;5.38;;;;;;;;;;4957153;29;20047;-80
2022/08/22 14:35:00;;;;;;;8.52;5.53;;;;;;;;;;4957412;28;20027;-76
2022/08/22 14:37:34;;;;;;;9.50;5.60;;;;;;;;;;4954638;29;20035;-79
2022/08/22 14:40:11;;;;;;;8.93;6.25;;;;;;;;;;4956971;29;20395;-77
2022/08/22 14:43:01;;;;;;;9.32;5.72;;;;;;;;;;4956505;29;20110;-79
2022/08/22 14:45:35;;;;;;;7.75;5.68;;;;;;;;;;4956682;29;20126;-78
2022/08/22 14:48:13;;;;;;;9.35;5.53;;;;;;;;;;4956790;29;20478;-79
2022/08/22 14:50:54;;;;;;;7.18;5.85;;;;;;;;;;4939566;28;20038;-78
2022/08/22 14:53:28;;;;;;;8.77;5.85;;;;;;;;;;4956553;29;20382;-79
2022/08/22 14:56:15;;;;;;;11.68;5.63;;;;;;;;;;4955656;29;20035;-79
2022/08/22 14:59:01;;;;;;;10.32;6.07;;;;;;;;;;4956429;29;20039;-78
2022/08/22 15:01:30;;;;;;;8.25;6.22;;;;;;;;;;4956331;29;20031;-79
2022/08/22 15:04:05;;;;;;;10.25;6.15;;;;;;;;;;4956531;29;20030;-78
2022/08/22 15:06:39;;;;;;;11.38;6.25;;;;;;;;;;4956580;29;20039;-79
2022/08/22 15:09:25;;;;;;;11.57;6.57;;;;;;;;;;4956540;29;20040;-81
2022/08/22 15:11:52;;;;;;;17.25;7.45;;;;;;;;;;4956062;29;20443;-80
2022/08/22 15:14:24;;;;;;;10.52;6.60;;;;;;;;;;4956608;29;20035;-76
2022/08/22 15:17:00;;;;;;;12.13;7.85;;;;;;;;;;4956529;29;20083;-79
2022/08/22 15:19:34;;;;;;;9.23;7.07;;;;;;;;;;4956248;29;20484;-79
2022/08/22 15:22:20;;;;;;;11.35;6.70;;;;;;;;;;4955837;29;20497;-77
2022/08/22 15:24:54;;;;;;;10.85;6.80;;;;;;;;;;4955988;29;20085;-80
2022/08/22 15:27:21;;;;;;;16.92;8.40;;;;;;;;;;4955640;29;20035;-79
2022/08/22 15:29:56;;;;;;;12.75;7.47;;;;;;;;;;4955905;29;20019;-78
2022/08/22 15:32:27;;;;;;;9.02;6.18;;;;;;;;;;4956239;29;20087;-76
2022/08/22 15:35:11;;;;;;;14.13;7.15;;;;;;;;;;4955162;29;20501;-77
2022/08/22 15:38:00;;;;;;;10.80;7.25;;;;;;;;;;4955206;29;20387;-78
2022/08/22 15:40:34;;;;;;;8.10;6.75;;;;;;;;;;4954685;28;20035;-77
2022/08/22 15:43:27;;;;;;;10.48;6.60;;;;;;;;;;4954860;28;20062;-82
2022/08/22 15:46:07;;;;;;;9.70;7.03;;;;;;;;;;4955899;29;20036;-82
2022/08/22 15:48:41;;;;;;;13.18;7.72;;;;;;;;;;4954943;29;20035;-79
2022/08/22 15:51:47;;;;;;;12.20;8.23;;;;;;;;;;4954409;29;20389;-79
2022/08/22 15:54:45;;;;;;;12.07;8.35;;;;;;;;;;4954040;28;20043;-75
2022/08/22 15:57:23;;;;;;;14.50;7.88;;;;;;;;;;4946020;28;20109;-78
2022/08/22 15:59:58;;;;;;;13.88;8.65;;;;;;;;;;4974676;28;20038;-78
2022/08/22 16:02:41;;;;;;;13.63;8.80;;;;;;;;;;4974710;28;20069;-80
2022/08/22 16:05:10;;;;;;;14.65;8.73;;;;;;;;;;4957060;28;20509;-78
2022/08/22 16:07:42;;;;;;;13.05;8.18;;;;;;;;;;4974615;28;20555;-80